sensor_id;sensor_type;location;lat;lon;timestamp;P1;durP1;ratioP1;P2;durP2;ratioP2
33740;SDS011;20065;48.380;10.892;2023-03-01T00:00:52;29.15;;;16.83;;
33740;SDS011;20065;48.380;10.892;2023-03-01T00:03:38;23.85;;;14.80;;
33740;SDS011;20065;48.380;10.892;2023-03-01T00:06:25;28.48;;;15.90;;
33740;SDS011;20065;48.380;10.892;2023-03-01T00:09:15;27.05;;;16.30;;
33740;SDS011;20065;48.380;10.892;2023-03-01T00:12:02;28.17;;;17.65;;
33740;SDS011;20065;48.380;10.892;2023-03-01T00:14:49;26.15;;;15.48;;
33740;SDS011;20065;48.380;10.892;2023-03-01T00:17:35;23.83;;;15.38;;
33740;SDS011;20065;48.380;10.892;2023-03-01T00:20:21;24.35;;;15.38;;
33740;SDS011;20065;48.380;10.892;2023-03-01T00:23:07;32.08;;;17.45;;
33740;SDS011;20065;48.380;10.892;2023-03-01T00:25:53;26.42;;;16.48;;
33740;SDS011;20065;48.380;10.892;2023-03-01T00:28:40;28.42;;;16.38;;
33740;SDS011;20065;48.380;10.892;2023-03-01T00:31:28;27.90;;;16.73;;
33740;SDS011;20065;48.380;10.892;2023-03-01T00:34:15;27.33;;;16.50;;
33740;SDS011;20065;48.380;10.892;2023-03-01T00:37:01;25.40;;;15.65;;
33740;SDS011;20065;48.380;10.892;2023-03-01T00:39:50;28.10;;;17.48;;
33740;SDS011;20065;48.380;10.892;2023-03-01T00:42:36;28.27;;;15.55;;
33740;SDS011;20065;48.380;10.892;2023-03-01T00:45:23;29.55;;;16.00;;
33740;SDS011;20065;48.380;10.892;2023-03-01T00:48:10;25.33;;;14.77;;
33740;SDS011;20065;48.380;10.892;2023-03-01T00:50:56;24.10;;;15.65;;
33740;SDS011;20065;48.380;10.892;2023-03-01T00:53:42;31.33;;;17.45;;
33740;SDS011;20065;48.380;10.892;2023-03-01T00:56:29;25.65;;;16.33;;
33740;SDS011;20065;48.380;10.892;2023-03-01T00:59:15;30.65;;;16.35;;
33740;SDS011;20065;48.380;10.892;2023-03-01T01:02:01;31.30;;;17.05;;
33740;SDS011;20065;48.380;10.892;2023-03-01T01:04:48;25.08;;;15.00;;
33740;SDS011;20065;48.380;10.892;2023-03-01T01:07:35;25.70;;;15.15;;
33740;SDS011;20065;48.380;10.892;2023-03-01T01:10:21;28.85;;;14.60;;
33740;SDS011;20065;48.380;10.892;2023-03-01T01:13:07;24.23;;;15.57;;
33740;SDS011;20065;48.380;10.892;2023-03-01T01:15:53;26.10;;;15.98;;
33740;SDS011;20065;48.380;10.892;2023-03-01T01:18:40;38.55;;;16.67;;
33740;SDS011;20065;48.380;10.892;2023-03-01T01:21:27;24.77;;;15.25;;
33740;SDS011;20065;48.380;10.892;2023-03-01T01:24:14;25.70;;;15.32;;
33740;SDS011;20065;48.380;10.892;2023-03-01T01:27:00;31.60;;;16.80;;
33740;SDS011;20065;48.380;10.892;2023-03-01T01:29:46;28.75;;;16.85;;
33740;SDS011;20065;48.380;10.892;2023-03-01T01:32:33;28.55;;;16.33;;
33740;SDS011;20065;48.380;10.892;2023-03-01T01:35:19;27.90;;;16.48;;
33740;SDS011;20065;48.380;10.892;2023-03-01T01:38:04;31.30;;;17.25;;
33740;SDS011;20065;48.380;10.892;2023-03-01T01:40:52;26.60;;;16.33;;
33740;SDS011;20065;48.380;10.892;2023-03-01T01:43:39;26.60;;;16.80;;
33740;SDS011;20065;48.380;10.892;2023-03-01T01:46:30;27.25;;;17.15;;
33740;SDS011;20065;48.380;10.892;2023-03-01T01:52:17;29.77;;;18.75;;
33740;SDS011;20065;48.380;10.892;2023-03-01T01:55:19;30.67;;;17.80;;
33740;SDS011;20065;48.380;10.892;2023-03-01T01:58:10;35.33;;;18.30;;
33740;SDS011;20065;48.380;10.892;2023-03-01T02:00:59;38.33;;;20.55;;
33740;SDS011;20065;48.380;10.892;2023-03-01T02:03:48;31.88;;;17.45;;
33740;SDS011;20065;48.380;10.892;2023-03-01T02:06:36;32.97;;;19.20;;
33740;SDS011;20065;48.380;10.892;2023-03-01T02:09:25;33.10;;;19.25;;
33740;SDS011;20065;48.380;10.892;2023-03-01T02:12:12;29.98;;;18.35;;
33740;SDS011;20065;48.380;10.892;2023-03-01T02:15:03;31.92;;;18.60;;
33740;SDS011;20065;48.380;10.892;2023-03-01T02:17:50;32.47;;;17.65;;
33740;SDS011;20065;48.380;10.892;2023-03-01T02:20:40;36.63;;;19.90;;
33740;SDS011;20065;48.380;10.892;2023-03-01T02:23:29;32.78;;;17.08;;
33740;SDS011;20065;48.380;10.892;2023-03-01T02:29:27;32.78;;;19.73;;
33740;SDS011;20065;48.380;10.892;2023-03-01T02:32:14;33.85;;;19.17;;
33740;SDS011;20065;48.380;10.892;2023-03-01T02:35:01;34.50;;;19.27;;
33740;SDS011;20065;48.380;10.892;2023-03-01T02:37:52;30.30;;;18.25;;
33740;SDS011;20065;48.380;10.892;2023-03-01T02:40:42;29.42;;;18.58;;
33740;SDS011;20065;48.380;10.892;2023-03-01T02:43:31;31.67;;;18.20;;
33740;SDS011;20065;48.380;10.892;2023-03-01T02:46:19;32.25;;;17.88;;
33740;SDS011;20065;48.380;10.892;2023-03-01T02:55:19;32.92;;;19.67;;
33740;SDS011;20065;48.380;10.892;2023-03-01T02:58:04;34.25;;;18.98;;
33740;SDS011;20065;48.380;10.892;2023-03-01T03:00:52;33.08;;;19.45;;
33740;SDS011;20065;48.380;10.892;2023-03-01T03:03:39;30.77;;;18.75;;
33740;SDS011;20065;48.380;10.892;2023-03-01T03:06:26;37.05;;;19.90;;
33740;SDS011;20065;48.380;10.892;2023-03-01T03:09:13;34.95;;;19.95;;
33740;SDS011;20065;48.380;10.892;2023-03-01T03:12:00;36.38;;;19.15;;
33740;SDS011;20065;48.380;10.892;2023-03-01T03:14:46;31.98;;;18.17;;
33740;SDS011;20065;48.380;10.892;2023-03-01T03:17:32;34.03;;;20.40;;
33740;SDS011;20065;48.380;10.892;2023-03-01T03:20:20;35.95;;;19.00;;
33740;SDS011;20065;48.380;10.892;2023-03-01T03:23:08;35.50;;;19.50;;
33740;SDS011;20065;48.380;10.892;2023-03-01T03:25:55;30.00;;;18.17;;
33740;SDS011;20065;48.380;10.892;2023-03-01T03:28:41;33.50;;;18.95;;
33740;SDS011;20065;48.380;10.892;2023-03-01T03:31:27;34.50;;;18.58;;
33740;SDS011;20065;48.380;10.892;2023-03-01T03:34:13;30.48;;;19.58;;
33740;SDS011;20065;48.380;10.892;2023-03-01T03:37:03;30.30;;;17.95;;
33740;SDS011;20065;48.380;10.892;2023-03-01T03:40:09;32.10;;;18.83;;
33740;SDS011;20065;48.380;10.892;2023-03-01T03:43:01;31.63;;;17.95;;
33740;SDS011;20065;48.380;10.892;2023-03-01T03:45:49;31.15;;;16.88;;
33740;SDS011;20065;48.380;10.892;2023-03-01T03:48:42;30.23;;;17.60;;
33740;SDS011;20065;48.380;10.892;2023-03-01T03:51:29;32.13;;;17.38;;
33740;SDS011;20065;48.380;10.892;2023-03-01T03:54:15;28.75;;;17.90;;
33740;SDS011;20065;48.380;10.892;2023-03-01T03:57:02;33.75;;;18.50;;
33740;SDS011;20065;48.380;10.892;2023-03-01T03:59:49;32.35;;;18.70;;
33740;SDS011;20065;48.380;10.892;2023-03-01T04:02:35;24.38;;;16.20;;
33740;SDS011;20065;48.380;10.892;2023-03-01T04:05:21;28.58;;;17.85;;
33740;SDS011;20065;48.380;10.892;2023-03-01T04:08:07;27.85;;;16.67;;
33740;SDS011;20065;48.380;10.892;2023-03-01T04:10:58;27.15;;;16.50;;
33740;SDS011;20065;48.380;10.892;2023-03-01T04:14:06;31.55;;;17.10;;
33740;SDS011;20065;48.380;10.892;2023-03-01T04:16:52;31.58;;;16.80;;
33740;SDS011;20065;48.380;10.892;2023-03-01T04:19:38;29.45;;;17.05;;
33740;SDS011;20065;48.380;10.892;2023-03-01T04:22:24;31.52;;;18.85;;
33740;SDS011;20065;48.380;10.892;2023-03-01T04:25:26;31.90;;;17.35;;
33740;SDS011;20065;48.380;10.892;2023-03-01T04:28:13;32.63;;;18.55;;
33740;SDS011;20065;48.380;10.892;2023-03-01T04:31:06;28.50;;;17.75;;
33740;SDS011;20065;48.380;10.892;2023-03-01T04:34:09;25.63;;;16.05;;
33740;SDS011;20065;48.380;10.892;2023-03-01T04:37:44;32.45;;;17.05;;
33740;SDS011;20065;48.380;10.892;2023-03-01T04:40:51;30.40;;;16.52;;
33740;SDS011;20065;48.380;10.892;2023-03-01T04:43:37;31.52;;;17.85;;
33740;SDS011;20065;48.380;10.892;2023-03-01T04:46:23;27.67;;;16.60;;
33740;SDS011;20065;48.380;10.892;2023-03-01T04:49:10;27.20;;;17.13;;
33740;SDS011;20065;48.380;10.892;2023-03-01T04:51:56;29.15;;;17.45;;
33740;SDS011;20065;48.380;10.892;2023-03-01T04:54:50;29.83;;;17.30;;
33740;SDS011;20065;48.380;10.892;2023-03-01T04:57:36;31.63;;;18.15;;
33740;SDS011;20065;48.380;10.892;2023-03-01T05:00:22;27.23;;;16.45;;
33740;SDS011;20065;48.380;10.892;2023-03-01T05:03:08;28.98;;;16.42;;
33740;SDS011;20065;48.380;10.892;2023-03-01T05:05:58;30.52;;;18.75;;
33740;SDS011;20065;48.380;10.892;2023-03-01T05:08:45;28.73;;;16.88;;
33740;SDS011;20065;48.380;10.892;2023-03-01T05:11:31;31.63;;;18.20;;
33740;SDS011;20065;48.380;10.892;2023-03-01T05:14:21;29.63;;;16.90;;
33740;SDS011;20065;48.380;10.892;2023-03-01T05:17:07;30.02;;;16.35;;
33740;SDS011;20065;48.380;10.892;2023-03-01T05:19:53;31.73;;;17.55;;
33740;SDS011;20065;48.380;10.892;2023-03-01T05:22:41;33.85;;;19.20;;
33740;SDS011;20065;48.380;10.892;2023-03-01T05:25:27;33.25;;;18.02;;
33740;SDS011;20065;48.380;10.892;2023-03-01T05:28:18;33.97;;;18.55;;
33740;SDS011;20065;48.380;10.892;2023-03-01T05:31:05;28.63;;;18.05;;
33740;SDS011;20065;48.380;10.892;2023-03-01T05:33:54;33.10;;;16.67;;
33740;SDS011;20065;48.380;10.892;2023-03-01T05:36:40;30.95;;;18.40;;
33740;SDS011;20065;48.380;10.892;2023-03-01T05:39:27;32.25;;;19.10;;
33740;SDS011;20065;48.380;10.892;2023-03-01T05:44:54;36.72;;;18.42;;
33740;SDS011;20065;48.380;10.892;2023-03-01T05:47:40;31.23;;;18.15;;
33740;SDS011;20065;48.380;10.892;2023-03-01T05:50:29;30.13;;;18.75;;
33740;SDS011;20065;48.380;10.892;2023-03-01T05:53:19;29.23;;;18.00;;
33740;SDS011;20065;48.380;10.892;2023-03-01T05:56:08;33.90;;;19.85;;
33740;SDS011;20065;48.380;10.892;2023-03-01T05:58:54;32.63;;;17.80;;
33740;SDS011;20065;48.380;10.892;2023-03-01T06:01:41;32.03;;;19.30;;
33740;SDS011;20065;48.380;10.892;2023-03-01T06:04:27;34.55;;;19.02;;
33740;SDS011;20065;48.380;10.892;2023-03-01T06:07:13;31.80;;;18.23;;
33740;SDS011;20065;48.380;10.892;2023-03-01T06:09:59;30.98;;;18.30;;
33740;SDS011;20065;48.380;10.892;2023-03-01T06:12:45;36.38;;;20.17;;
33740;SDS011;20065;48.380;10.892;2023-03-01T06:15:32;32.05;;;19.45;;
33740;SDS011;20065;48.380;10.892;2023-03-01T06:18:18;32.03;;;19.33;;
33740;SDS011;20065;48.380;10.892;2023-03-01T06:21:04;31.85;;;19.15;;
33740;SDS011;20065;48.380;10.892;2023-03-01T06:23:51;29.88;;;17.63;;
33740;SDS011;20065;48.380;10.892;2023-03-01T06:26:37;36.97;;;19.40;;
33740;SDS011;20065;48.380;10.892;2023-03-01T06:29:24;32.65;;;19.58;;
33740;SDS011;20065;48.380;10.892;2023-03-01T06:32:10;38.00;;;18.10;;
33740;SDS011;20065;48.380;10.892;2023-03-01T06:34:56;28.98;;;17.85;;
33740;SDS011;20065;48.380;10.892;2023-03-01T06:37:44;32.63;;;19.05;;
33740;SDS011;20065;48.380;10.892;2023-03-01T06:40:34;33.67;;;19.88;;
33740;SDS011;20065;48.380;10.892;2023-03-01T06:43:21;34.00;;;19.60;;
33740;SDS011;20065;48.380;10.892;2023-03-01T06:46:07;33.10;;;18.65;;
33740;SDS011;20065;48.380;10.892;2023-03-01T06:48:54;37.00;;;19.25;;
33740;SDS011;20065;48.380;10.892;2023-03-01T06:51:40;29.52;;;18.10;;
33740;SDS011;20065;48.380;10.892;2023-03-01T06:54:26;33.28;;;18.92;;
33740;SDS011;20065;48.380;10.892;2023-03-01T06:57:12;31.70;;;18.45;;
33740;SDS011;20065;48.380;10.892;2023-03-01T06:59:58;31.35;;;17.98;;
33740;SDS011;20065;48.380;10.892;2023-03-01T07:02:44;30.77;;;18.83;;
33740;SDS011;20065;48.380;10.892;2023-03-01T07:05:30;32.15;;;18.13;;
33740;SDS011;20065;48.380;10.892;2023-03-01T07:08:18;31.08;;;19.20;;
33740;SDS011;20065;48.380;10.892;2023-03-01T07:11:05;28.88;;;18.02;;
33740;SDS011;20065;48.380;10.892;2023-03-01T07:13:51;35.20;;;17.40;;
33740;SDS011;20065;48.380;10.892;2023-03-01T07:16:37;38.13;;;19.15;;
33740;SDS011;20065;48.380;10.892;2023-03-01T07:19:23;35.63;;;19.58;;
33740;SDS011;20065;48.380;10.892;2023-03-01T07:22:09;31.05;;;18.48;;
33740;SDS011;20065;48.380;10.892;2023-03-01T07:24:56;38.53;;;20.15;;
33740;SDS011;20065;48.380;10.892;2023-03-01T07:27:42;33.85;;;18.25;;
33740;SDS011;20065;48.380;10.892;2023-03-01T07:30:28;32.35;;;18.80;;
33740;SDS011;20065;48.380;10.892;2023-03-01T07:33:14;33.53;;;19.30;;
33740;SDS011;20065;48.380;10.892;2023-03-01T07:36:01;34.00;;;18.65;;
33740;SDS011;20065;48.380;10.892;2023-03-01T07:38:48;32.83;;;19.15;;
33740;SDS011;20065;48.380;10.892;2023-03-01T07:41:34;31.90;;;18.50;;
33740;SDS011;20065;48.380;10.892;2023-03-01T07:44:21;32.58;;;18.42;;
33740;SDS011;20065;48.380;10.892;2023-03-01T07:47:07;29.85;;;17.95;;
33740;SDS011;20065;48.380;10.892;2023-03-01T07:49:53;29.05;;;17.33;;
33740;SDS011;20065;48.380;10.892;2023-03-01T07:52:39;33.05;;;18.52;;
33740;SDS011;20065;48.380;10.892;2023-03-01T07:55:25;28.75;;;17.38;;
33740;SDS011;20065;48.380;10.892;2023-03-01T07:58:11;36.28;;;18.17;;
33740;SDS011;20065;48.380;10.892;2023-03-01T08:01:00;30.27;;;19.00;;
33740;SDS011;20065;48.380;10.892;2023-03-01T08:03:50;28.67;;;16.73;;
33740;SDS011;20065;48.380;10.892;2023-03-01T08:06:36;29.77;;;17.63;;
33740;SDS011;20065;48.380;10.892;2023-03-01T08:09:22;29.95;;;17.80;;
33740;SDS011;20065;48.380;10.892;2023-03-01T08:12:09;31.30;;;17.10;;
33740;SDS011;20065;48.380;10.892;2023-03-01T08:14:55;26.85;;;16.60;;
33740;SDS011;20065;48.380;10.892;2023-03-01T08:17:42;30.42;;;18.08;;
33740;SDS011;20065;48.380;10.892;2023-03-01T08:20:28;32.35;;;18.92;;
33740;SDS011;20065;48.380;10.892;2023-03-01T08:23:14;31.20;;;18.85;;
33740;SDS011;20065;48.380;10.892;2023-03-01T08:26:19;28.67;;;17.20;;
33740;SDS011;20065;48.380;10.892;2023-03-01T08:29:06;29.50;;;18.10;;
33740;SDS011;20065;48.380;10.892;2023-03-01T08:31:52;31.08;;;17.45;;
33740;SDS011;20065;48.380;10.892;2023-03-01T08:34:38;28.02;;;16.30;;
33740;SDS011;20065;48.380;10.892;2023-03-01T08:37:24;28.60;;;16.65;;
33740;SDS011;20065;48.380;10.892;2023-03-01T08:40:11;32.30;;;18.02;;
33740;SDS011;20065;48.380;10.892;2023-03-01T08:42:59;34.78;;;18.95;;
33740;SDS011;20065;48.380;10.892;2023-03-01T08:45:45;29.63;;;18.67;;
33740;SDS011;20065;48.380;10.892;2023-03-01T08:48:33;33.78;;;17.35;;
33740;SDS011;20065;48.380;10.892;2023-03-01T08:51:20;30.42;;;17.88;;
33740;SDS011;20065;48.380;10.892;2023-03-01T08:54:07;31.65;;;19.05;;
33740;SDS011;20065;48.380;10.892;2023-03-01T08:56:56;30.45;;;16.50;;
33740;SDS011;20065;48.380;10.892;2023-03-01T08:59:44;31.30;;;17.52;;
33740;SDS011;20065;48.380;10.892;2023-03-01T09:02:30;28.63;;;16.33;;
33740;SDS011;20065;48.380;10.892;2023-03-01T09:05:16;28.92;;;18.13;;
33740;SDS011;20065;48.380;10.892;2023-03-01T09:08:03;28.52;;;16.90;;
33740;SDS011;20065;48.380;10.892;2023-03-01T09:10:49;31.20;;;19.05;;
33740;SDS011;20065;48.380;10.892;2023-03-01T09:13:35;33.22;;;17.55;;
33740;SDS011;20065;48.380;10.892;2023-03-01T09:16:22;30.10;;;18.52;;
33740;SDS011;20065;48.380;10.892;2023-03-01T09:19:08;30.10;;;17.73;;
33740;SDS011;20065;48.380;10.892;2023-03-01T09:21:54;28.88;;;18.23;;
33740;SDS011;20065;48.380;10.892;2023-03-01T09:24:41;25.85;;;15.75;;
33740;SDS011;20065;48.380;10.892;2023-03-01T09:27:27;26.65;;;15.68;;
33740;SDS011;20065;48.380;10.892;2023-03-01T09:30:13;33.53;;;16.52;;
33740;SDS011;20065;48.380;10.892;2023-03-01T09:33:00;27.00;;;16.55;;
33740;SDS011;20065;48.380;10.892;2023-03-01T09:35:46;30.38;;;17.00;;
33740;SDS011;20065;48.380;10.892;2023-03-01T09:38:33;26.52;;;15.35;;
33740;SDS011;20065;48.380;10.892;2023-03-01T09:44:21;28.50;;;18.00;;
33740;SDS011;20065;48.380;10.892;2023-03-01T09:47:23;27.20;;;16.95;;
33740;SDS011;20065;48.380;10.892;2023-03-01T09:50:16;28.05;;;16.55;;
33740;SDS011;20065;48.380;10.892;2023-03-01T09:53:15;30.70;;;18.73;;
33740;SDS011;20065;48.380;10.892;2023-03-01T10:10:53;31.95;;;20.20;;
33740;SDS011;20065;48.380;10.892;2023-03-01T10:13:48;36.58;;;19.75;;
33740;SDS011;20065;48.380;10.892;2023-03-01T10:19:44;27.80;;;18.60;;
33740;SDS011;20065;48.380;10.892;2023-03-01T10:22:31;28.02;;;18.05;;
33740;SDS011;20065;48.380;10.892;2023-03-01T10:25:22;30.52;;;19.23;;
33740;SDS011;20065;48.380;10.892;2023-03-01T10:28:30;25.15;;;17.25;;
33740;SDS011;20065;48.380;10.892;2023-03-01T10:31:24;26.33;;;17.67;;
33740;SDS011;20065;48.380;10.892;2023-03-01T10:34:30;25.70;;;18.58;;
33740;SDS011;20065;48.380;10.892;2023-03-01T10:37:19;28.77;;;19.45;;
33740;SDS011;20065;48.380;10.892;2023-03-01T10:40:08;29.17;;;19.58;;
33740;SDS011;20065;48.380;10.892;2023-03-01T10:42:57;25.52;;;16.90;;
33740;SDS011;20065;48.380;10.892;2023-03-01T10:45:45;27.08;;;18.08;;
33740;SDS011;20065;48.380;10.892;2023-03-01T10:48:31;25.30;;;17.45;;
33740;SDS011;20065;48.380;10.892;2023-03-01T10:51:17;29.73;;;19.08;;
33740;SDS011;20065;48.380;10.892;2023-03-01T10:54:06;26.10;;;17.50;;
33740;SDS011;20065;48.380;10.892;2023-03-01T10:57:05;30.13;;;19.40;;
33740;SDS011;20065;48.380;10.892;2023-03-01T11:00:00;27.63;;;19.83;;
33740;SDS011;20065;48.380;10.892;2023-03-01T11:03:09;28.15;;;18.92;;
33740;SDS011;20065;48.380;10.892;2023-03-01T11:09:18;27.48;;;19.40;;
33740;SDS011;20065;48.380;10.892;2023-03-01T11:12:13;23.55;;;18.13;;
33740;SDS011;20065;48.380;10.892;2023-03-01T11:15:01;26.55;;;18.63;;
33740;SDS011;20065;48.380;10.892;2023-03-01T11:17:48;26.52;;;18.42;;
33740;SDS011;20065;48.380;10.892;2023-03-01T11:20:35;27.65;;;19.13;;
33740;SDS011;20065;48.380;10.892;2023-03-01T11:23:22;26.27;;;19.02;;
33740;SDS011;20065;48.380;10.892;2023-03-01T11:26:10;28.55;;;19.20;;
33740;SDS011;20065;48.380;10.892;2023-03-01T11:29:00;27.65;;;18.67;;
33740;SDS011;20065;48.380;10.892;2023-03-01T11:31:53;28.13;;;18.73;;
33740;SDS011;20065;48.380;10.892;2023-03-01T11:37:44;27.08;;;19.85;;
33740;SDS011;20065;48.380;10.892;2023-03-01T11:44:18;26.10;;;18.10;;
33740;SDS011;20065;48.380;10.892;2023-03-01T11:50:28;24.73;;;17.55;;
33740;SDS011;20065;48.380;10.892;2023-03-01T11:56:50;24.60;;;16.83;;
33740;SDS011;20065;48.380;10.892;2023-03-01T12:06:12;26.52;;;17.48;;
33740;SDS011;20065;48.380;10.892;2023-03-01T12:09:27;24.75;;;17.90;;
33740;SDS011;20065;48.380;10.892;2023-03-01T12:15:35;24.17;;;15.70;;
33740;SDS011;20065;48.380;10.892;2023-03-01T12:22:04;22.55;;;16.40;;
33740;SDS011;20065;48.380;10.892;2023-03-01T12:25:25;22.45;;;16.67;;
33740;SDS011;20065;48.380;10.892;2023-03-01T12:28:31;29.25;;;18.25;;
33740;SDS011;20065;48.380;10.892;2023-03-01T12:35:00;23.98;;;16.92;;
33740;SDS011;20065;48.380;10.892;2023-03-01T12:41:57;29.73;;;17.85;;
33740;SDS011;20065;48.380;10.892;2023-03-01T12:48:28;24.52;;;17.08;;
33740;SDS011;20065;48.380;10.892;2023-03-01T12:51:11;24.83;;;15.65;;
33740;SDS011;20065;48.380;10.892;2023-03-01T12:54:07;24.70;;;17.80;;
33740;SDS011;20065;48.380;10.892;2023-03-01T12:57:03;25.40;;;17.52;;
33740;SDS011;20065;48.380;10.892;2023-03-01T13:00:29;24.75;;;16.92;;
33740;SDS011;20065;48.380;10.892;2023-03-01T13:03:26;27.85;;;17.05;;
33740;SDS011;20065;48.380;10.892;2023-03-01T13:15:43;24.77;;;15.50;;
33740;SDS011;20065;48.380;10.892;2023-03-01T13:18:29;23.20;;;16.30;;
33740;SDS011;20065;48.380;10.892;2023-03-01T13:21:28;26.58;;;16.70;;
33740;SDS011;20065;48.380;10.892;2023-03-01T13:24:31;24.70;;;15.60;;
33740;SDS011;20065;48.380;10.892;2023-03-01T13:27:24;25.15;;;16.75;;
33740;SDS011;20065;48.380;10.892;2023-03-01T13:39:30;25.63;;;16.50;;
33740;SDS011;20065;48.380;10.892;2023-03-01T13:48:29;23.60;;;16.23;;
33740;SDS011;20065;48.380;10.892;2023-03-01T13:51:16;27.33;;;14.55;;
33740;SDS011;20065;48.380;10.892;2023-03-01T13:54:11;24.88;;;15.77;;
33740;SDS011;20065;48.380;10.892;2023-03-01T13:57:00;22.65;;;14.48;;
33740;SDS011;20065;48.380;10.892;2023-03-01T13:59:47;23.98;;;16.40;;
33740;SDS011;20065;48.380;10.892;2023-03-01T14:02:33;22.60;;;15.10;;
33740;SDS011;20065;48.380;10.892;2023-03-01T14:05:21;23.48;;;15.60;;
33740;SDS011;20065;48.380;10.892;2023-03-01T14:11:31;22.48;;;15.32;;
33740;SDS011;20065;48.380;10.892;2023-03-01T14:21:22;24.60;;;15.75;;
33740;SDS011;20065;48.380;10.892;2023-03-01T14:24:18;22.75;;;16.02;;
33740;SDS011;20065;48.380;10.892;2023-03-01T14:27:13;21.55;;;15.52;;
33740;SDS011;20065;48.380;10.892;2023-03-01T14:30:19;20.65;;;14.95;;
33740;SDS011;20065;48.380;10.892;2023-03-01T14:36:26;27.08;;;14.93;;
33740;SDS011;20065;48.380;10.892;2023-03-01T14:42:34;25.65;;;15.63;;
33740;SDS011;20065;48.380;10.892;2023-03-01T14:48:54;22.58;;;15.63;;
33740;SDS011;20065;48.380;10.892;2023-03-01T14:59:18;24.50;;;15.73;;
33740;SDS011;20065;48.380;10.892;2023-03-01T15:02:08;23.35;;;15.60;;
33740;SDS011;20065;48.380;10.892;2023-03-01T15:05:06;25.27;;;14.80;;
33740;SDS011;20065;48.380;10.892;2023-03-01T15:07:54;24.77;;;16.10;;
33740;SDS011;20065;48.380;10.892;2023-03-01T15:10:54;26.02;;;16.25;;
33740;SDS011;20065;48.380;10.892;2023-03-01T15:13:42;24.88;;;15.35;;
33740;SDS011;20065;48.380;10.892;2023-03-01T15:16:33;21.30;;;13.70;;
33740;SDS011;20065;48.380;10.892;2023-03-01T15:19:26;25.02;;;16.20;;
33740;SDS011;20065;48.380;10.892;2023-03-01T15:22:17;22.95;;;15.27;;
33740;SDS011;20065;48.380;10.892;2023-03-01T15:25:03;25.95;;;15.70;;
33740;SDS011;20065;48.380;10.892;2023-03-01T15:27:50;27.77;;;15.88;;
33740;SDS011;20065;48.380;10.892;2023-03-01T15:30:38;20.13;;;14.35;;
33740;SDS011;20065;48.380;10.892;2023-03-01T15:36:29;23.83;;;15.43;;
33740;SDS011;20065;48.380;10.892;2023-03-01T15:48:13;25.98;;;15.50;;
33740;SDS011;20065;48.380;10.892;2023-03-01T15:51:09;23.00;;;15.60;;
33740;SDS011;20065;48.380;10.892;2023-03-01T15:54:06;25.55;;;15.10;;
33740;SDS011;20065;48.380;10.892;2023-03-01T15:57:21;25.73;;;15.32;;
33740;SDS011;20065;48.380;10.892;2023-03-01T16:00:12;21.95;;;14.40;;
33740;SDS011;20065;48.380;10.892;2023-03-01T16:03:03;23.48;;;14.65;;
33740;SDS011;20065;48.380;10.892;2023-03-01T16:05:51;25.58;;;15.23;;
33740;SDS011;20065;48.380;10.892;2023-03-01T16:08:37;28.30;;;17.13;;
33740;SDS011;20065;48.380;10.892;2023-03-01T16:11:23;22.73;;;14.65;;
33740;SDS011;20065;48.380;10.892;2023-03-01T16:14:10;23.48;;;15.48;;
33740;SDS011;20065;48.380;10.892;2023-03-01T16:16:56;21.33;;;13.98;;
33740;SDS011;20065;48.380;10.892;2023-03-01T16:19:42;21.40;;;13.63;;
33740;SDS011;20065;48.380;10.892;2023-03-01T16:22:31;22.02;;;14.35;;
33740;SDS011;20065;48.380;10.892;2023-03-01T16:25:18;22.65;;;13.82;;
33740;SDS011;20065;48.380;10.892;2023-03-01T16:28:06;23.63;;;15.40;;
33740;SDS011;20065;48.380;10.892;2023-03-01T16:30:55;22.10;;;14.65;;
33740;SDS011;20065;48.380;10.892;2023-03-01T16:33:41;22.35;;;14.52;;
33740;SDS011;20065;48.380;10.892;2023-03-01T16:36:27;23.95;;;14.98;;
33740;SDS011;20065;48.380;10.892;2023-03-01T16:39:14;23.77;;;15.90;;
33740;SDS011;20065;48.380;10.892;2023-03-01T16:42:00;20.35;;;13.65;;
33740;SDS011;20065;48.380;10.892;2023-03-01T16:44:46;23.02;;;15.32;;
33740;SDS011;20065;48.380;10.892;2023-03-01T16:47:32;21.98;;;14.43;;
33740;SDS011;20065;48.380;10.892;2023-03-01T16:50:19;21.50;;;14.82;;
33740;SDS011;20065;48.380;10.892;2023-03-01T16:53:05;25.25;;;14.85;;
33740;SDS011;20065;48.380;10.892;2023-03-01T16:55:57;23.65;;;14.88;;
33740;SDS011;20065;48.380;10.892;2023-03-01T16:58:44;25.48;;;14.60;;
33740;SDS011;20065;48.380;10.892;2023-03-01T17:01:30;24.15;;;15.65;;
33740;SDS011;20065;48.380;10.892;2023-03-01T17:04:22;22.70;;;14.55;;
33740;SDS011;20065;48.380;10.892;2023-03-01T17:07:08;22.55;;;14.40;;
33740;SDS011;20065;48.380;10.892;2023-03-01T17:09:55;26.77;;;15.57;;
33740;SDS011;20065;48.380;10.892;2023-03-01T17:12:45;25.83;;;13.65;;
33740;SDS011;20065;48.380;10.892;2023-03-01T17:15:40;26.70;;;14.60;;
33740;SDS011;20065;48.380;10.892;2023-03-01T17:18:26;24.38;;;14.95;;
33740;SDS011;20065;48.380;10.892;2023-03-01T17:21:13;27.75;;;15.23;;
33740;SDS011;20065;48.380;10.892;2023-03-01T17:23:59;25.80;;;14.43;;
33740;SDS011;20065;48.380;10.892;2023-03-01T17:26:46;28.75;;;16.08;;
33740;SDS011;20065;48.380;10.892;2023-03-01T17:29:32;28.27;;;14.77;;
33740;SDS011;20065;48.380;10.892;2023-03-01T17:32:19;26.17;;;16.77;;
33740;SDS011;20065;48.380;10.892;2023-03-01T17:35:06;26.65;;;16.75;;
33740;SDS011;20065;48.380;10.892;2023-03-01T17:37:53;27.33;;;15.68;;
33740;SDS011;20065;48.380;10.892;2023-03-01T17:40:39;25.25;;;16.40;;
33740;SDS011;20065;48.380;10.892;2023-03-01T17:43:26;28.63;;;17.35;;
33740;SDS011;20065;48.380;10.892;2023-03-01T17:46:13;26.35;;;16.13;;
33740;SDS011;20065;48.380;10.892;2023-03-01T17:48:59;30.67;;;18.67;;
33740;SDS011;20065;48.380;10.892;2023-03-01T17:51:45;28.40;;;18.17;;
33740;SDS011;20065;48.380;10.892;2023-03-01T17:54:31;33.03;;;19.10;;
33740;SDS011;20065;48.380;10.892;2023-03-01T17:57:18;28.75;;;17.30;;
33740;SDS011;20065;48.380;10.892;2023-03-01T18:00:04;26.02;;;16.42;;
33740;SDS011;20065;48.380;10.892;2023-03-01T18:03:00;29.15;;;17.60;;
33740;SDS011;20065;48.380;10.892;2023-03-01T18:05:46;29.50;;;18.08;;
33740;SDS011;20065;48.380;10.892;2023-03-01T18:08:33;30.67;;;18.42;;
33740;SDS011;20065;48.380;10.892;2023-03-01T18:11:20;26.90;;;17.13;;
33740;SDS011;20065;48.380;10.892;2023-03-01T18:14:08;33.08;;;18.55;;
33740;SDS011;20065;48.380;10.892;2023-03-01T18:16:54;28.65;;;18.05;;
33740;SDS011;20065;48.380;10.892;2023-03-01T18:19:40;32.53;;;18.95;;
33740;SDS011;20065;48.380;10.892;2023-03-01T18:22:30;34.63;;;20.27;;
33740;SDS011;20065;48.380;10.892;2023-03-01T18:25:18;33.83;;;19.83;;
33740;SDS011;20065;48.380;10.892;2023-03-01T18:28:04;29.83;;;17.65;;
33740;SDS011;20065;48.380;10.892;2023-03-01T18:30:57;39.92;;;21.33;;
33740;SDS011;20065;48.380;10.892;2023-03-01T18:33:44;38.35;;;20.45;;
33740;SDS011;20065;48.380;10.892;2023-03-01T18:36:34;34.55;;;19.95;;